sensor_id;sensor_type;location;lat;lon;timestamp;P1;durP1;ratioP1;P2;durP2;ratioP2
72584;SDS011;60618;40.084;32.908;2023-05-09T00:00:51;5.97;;;2.28;;
72584;SDS011;60618;40.084;32.908;2023-05-09T00:03:17;4.55;;;2.35;;
72584;SDS011;60618;40.084;32.908;2023-05-09T00:05:45;4.40;;;2.10;;
72584;SDS011;60618;40.084;32.908;2023-05-09T00:08:11;4.60;;;2.17;;
72584;SDS011;60618;40.084;32.908;2023-05-09T00:10:38;4.57;;;2.20;;
72584;SDS011;60618;40.084;32.908;2023-05-09T00:13:05;5.15;;;2.30;;
72584;SDS011;60618;40.084;32.908;2023-05-09T00:15:32;4.82;;;2.10;;
72584;SDS011;60618;40.084;32.908;2023-05-09T00:17:59;5.43;;;2.33;;
72584;SDS011;60618;40.084;32.908;2023-05-09T00:20:26;4.32;;;2.00;;
72584;SDS011;60618;40.084;32.908;2023-05-09T00:22:53;5.82;;;2.25;;
72584;SDS011;60618;40.084;32.908;2023-05-09T00:25:20;5.90;;;2.28;;
72584;SDS011;60618;40.084;32.908;2023-05-09T00:27:47;4.53;;;2.22;;
72584;SDS011;60618;40.084;32.908;2023-05-09T00:30:14;5.33;;;2.33;;
72584;SDS011;60618;40.084;32.908;2023-05-09T00:32:41;7.95;;;2.15;;
72584;SDS011;60618;40.084;32.908;2023-05-09T00:35:08;5.28;;;2.10;;
72584;SDS011;60618;40.084;32.908;2023-05-09T00:37:35;5.30;;;2.17;;
72584;SDS011;60618;40.084;32.908;2023-05-09T00:40:03;5.32;;;2.20;;
72584;SDS011;60618;40.084;32.908;2023-05-09T00:42:32;4.70;;;2.30;;
72584;SDS011;60618;40.084;32.908;2023-05-09T00:44:59;4.93;;;2.35;;
72584;SDS011;60618;40.084;32.908;2023-05-09T00:47:26;5.32;;;2.35;;
72584;SDS011;60618;40.084;32.908;2023-05-09T00:49:54;5.15;;;2.28;;
72584;SDS011;60618;40.084;32.908;2023-05-09T00:52:25;4.90;;;2.42;;
72584;SDS011;60618;40.084;32.908;2023-05-09T00:54:53;4.73;;;2.30;;
72584;SDS011;60618;40.084;32.908;2023-05-09T00:57:21;5.15;;;2.35;;
72584;SDS011;60618;40.084;32.908;2023-05-09T00:59:48;4.90;;;2.20;;
72584;SDS011;60618;40.084;32.908;2023-05-09T01:02:18;4.85;;;2.40;;
72584;SDS011;60618;40.084;32.908;2023-05-09T01:04:46;6.07;;;2.45;;
72584;SDS011;60618;40.084;32.908;2023-05-09T01:09:51;5.55;;;2.17;;
72584;SDS011;60618;40.084;32.908;2023-05-09T01:12:28;4.90;;;2.55;;
72584;SDS011;60618;40.084;32.908;2023-05-09T01:15:12;5.30;;;2.40;;
72584;SDS011;60618;40.084;32.908;2023-05-09T01:18:10;4.85;;;1.90;;
72584;SDS011;60618;40.084;32.908;2023-05-09T01:20:42;4.27;;;2.00;;
72584;SDS011;60618;40.084;32.908;2023-05-09T01:32:27;5.80;;;2.63;;
72584;SDS011;60618;40.084;32.908;2023-05-09T01:34:58;5.90;;;2.30;;
72584;SDS011;60618;40.084;32.908;2023-05-09T01:37:31;4.65;;;2.28;;
72584;SDS011;60618;40.084;32.908;2023-05-09T01:40:22;4.47;;;2.20;;
72584;SDS011;60618;40.084;32.908;2023-05-09T01:42:53;5.03;;;2.20;;
72584;SDS011;60618;40.084;32.908;2023-05-09T01:45:23;5.10;;;2.42;;
72584;SDS011;60618;40.084;32.908;2023-05-09T01:47:52;4.47;;;2.27;;
72584;SDS011;60618;40.084;32.908;2023-05-09T01:50:19;4.85;;;2.35;;
72584;SDS011;60618;40.084;32.908;2023-05-09T01:52:48;4.72;;;2.30;;
72584;SDS011;60618;40.084;32.908;2023-05-09T01:55:18;6.65;;;2.40;;
72584;SDS011;60618;40.084;32.908;2023-05-09T01:57:48;5.40;;;2.42;;
72584;SDS011;60618;40.084;32.908;2023-05-09T02:00:16;5.13;;;2.53;;
72584;SDS011;60618;40.084;32.908;2023-05-09T02:02:44;5.28;;;2.30;;
72584;SDS011;60618;40.084;32.908;2023-05-09T02:05:11;4.85;;;2.25;;
72584;SDS011;60618;40.084;32.908;2023-05-09T02:07:40;4.95;;;2.30;;
72584;SDS011;60618;40.084;32.908;2023-05-09T02:10:08;4.68;;;2.20;;
72584;SDS011;60618;40.084;32.908;2023-05-09T02:12:35;5.30;;;2.40;;
72584;SDS011;60618;40.084;32.908;2023-05-09T02:15:03;5.15;;;2.30;;
72584;SDS011;60618;40.084;32.908;2023-05-09T02:17:31;5.20;;;2.42;;
72584;SDS011;60618;40.084;32.908;2023-05-09T02:19:58;5.25;;;2.40;;
72584;SDS011;60618;40.084;32.908;2023-05-09T02:22:25;4.60;;;2.30;;
72584;SDS011;60618;40.084;32.908;2023-05-09T02:24:52;5.30;;;2.40;;
72584;SDS011;60618;40.084;32.908;2023-05-09T02:27:19;4.78;;;2.58;;
72584;SDS011;60618;40.084;32.908;2023-05-09T02:29:48;5.18;;;2.60;;
72584;SDS011;60618;40.084;32.908;2023-05-09T02:32:24;6.75;;;3.08;;
72584;SDS011;60618;40.084;32.908;2023-05-09T02:34:55;6.75;;;3.17;;
72584;SDS011;60618;40.084;32.908;2023-05-09T02:37:23;6.10;;;2.80;;
72584;SDS011;60618;40.084;32.908;2023-05-09T02:39:51;6.03;;;2.92;;
72584;SDS011;60618;40.084;32.908;2023-05-09T02:42:22;5.63;;;2.45;;
72584;SDS011;60618;40.084;32.908;2023-05-09T02:44:53;5.43;;;2.70;;
72584;SDS011;60618;40.084;32.908;2023-05-09T02:47:21;5.38;;;2.55;;
72584;SDS011;60618;40.084;32.908;2023-05-09T02:49:48;6.97;;;3.33;;
72584;SDS011;60618;40.084;32.908;2023-05-09T02:52:15;8.60;;;3.67;;
72584;SDS011;60618;40.084;32.908;2023-05-09T02:54:42;7.63;;;3.40;;
72584;SDS011;60618;40.084;32.908;2023-05-09T02:57:09;6.70;;;2.78;;
72584;SDS011;60618;40.084;32.908;2023-05-09T02:59:36;7.07;;;3.15;;
72584;SDS011;60618;40.084;32.908;2023-05-09T03:02:02;5.37;;;2.60;;
72584;SDS011;60618;40.084;32.908;2023-05-09T03:04:29;5.88;;;2.78;;
72584;SDS011;60618;40.084;32.908;2023-05-09T03:06:56;5.03;;;2.10;;
72584;SDS011;60618;40.084;32.908;2023-05-09T03:09:23;4.72;;;2.22;;
72584;SDS011;60618;40.084;32.908;2023-05-09T03:11:50;4.95;;;2.20;;
72584;SDS011;60618;40.084;32.908;2023-05-09T03:14:17;5.37;;;2.50;;
72584;SDS011;60618;40.084;32.908;2023-05-09T03:16:44;5.47;;;2.42;;
72584;SDS011;60618;40.084;32.908;2023-05-09T03:19:11;5.40;;;3.10;;
72584;SDS011;60618;40.084;32.908;2023-05-09T03:21:38;6.72;;;3.00;;
72584;SDS011;60618;40.084;32.908;2023-05-09T03:24:05;6.05;;;3.20;;
72584;SDS011;60618;40.084;32.908;2023-05-09T03:26:33;5.80;;;2.83;;
72584;SDS011;60618;40.084;32.908;2023-05-09T03:29:00;6.03;;;3.00;;
72584;SDS011;60618;40.084;32.908;2023-05-09T03:31:27;5.25;;;2.85;;
72584;SDS011;60618;40.084;32.908;2023-05-09T03:33:54;6.55;;;3.25;;
72584;SDS011;60618;40.084;32.908;2023-05-09T03:36:22;8.85;;;3.75;;
72584;SDS011;60618;40.084;32.908;2023-05-09T03:38:50;6.70;;;2.93;;
72584;SDS011;60618;40.084;32.908;2023-05-09T03:41:17;6.72;;;3.50;;
72584;SDS011;60618;40.084;32.908;2023-05-09T03:43:44;7.10;;;4.10;;
72584;SDS011;60618;40.084;32.908;2023-05-09T03:46:11;7.85;;;3.88;;
72584;SDS011;60618;40.084;32.908;2023-05-09T03:48:38;6.28;;;3.50;;
72584;SDS011;60618;40.084;32.908;2023-05-09T03:51:05;6.67;;;3.53;;
72584;SDS011;60618;40.084;32.908;2023-05-09T03:53:32;6.88;;;3.72;;
72584;SDS011;60618;40.084;32.908;2023-05-09T03:55:58;7.15;;;2.80;;
72584;SDS011;60618;40.084;32.908;2023-05-09T03:58:25;8.02;;;3.20;;
72584;SDS011;60618;40.084;32.908;2023-05-09T04:00:52;5.35;;;2.97;;
72584;SDS011;60618;40.084;32.908;2023-05-09T04:03:19;4.70;;;2.60;;
72584;SDS011;60618;40.084;32.908;2023-05-09T04:05:46;6.80;;;2.95;;
72584;SDS011;60618;40.084;32.908;2023-05-09T04:08:14;5.45;;;2.58;;
72584;SDS011;60618;40.084;32.908;2023-05-09T04:10:41;6.10;;;2.80;;
72584;SDS011;60618;40.084;32.908;2023-05-09T04:13:08;4.90;;;2.78;;
72584;SDS011;60618;40.084;32.908;2023-05-09T04:15:35;5.57;;;2.40;;
72584;SDS011;60618;40.084;32.908;2023-05-09T04:18:02;5.65;;;2.63;;
72584;SDS011;60618;40.084;32.908;2023-05-09T04:20:29;5.63;;;2.83;;
72584;SDS011;60618;40.084;32.908;2023-05-09T04:22:56;6.68;;;2.78;;
72584;SDS011;60618;40.084;32.908;2023-05-09T04:25:23;5.38;;;2.58;;
72584;SDS011;60618;40.084;32.908;2023-05-09T04:27:50;4.97;;;2.23;;
72584;SDS011;60618;40.084;32.908;2023-05-09T04:30:17;4.90;;;2.38;;
72584;SDS011;60618;40.084;32.908;2023-05-09T04:32:44;4.97;;;2.53;;
72584;SDS011;60618;40.084;32.908;2023-05-09T04:35:11;4.85;;;2.47;;
72584;SDS011;60618;40.084;32.908;2023-05-09T04:37:39;4.90;;;2.30;;
72584;SDS011;60618;40.084;32.908;2023-05-09T04:40:06;4.67;;;2.57;;
72584;SDS011;60618;40.084;32.908;2023-05-09T04:42:34;4.68;;;2.45;;
72584;SDS011;60618;40.084;32.908;2023-05-09T04:45:00;4.68;;;2.20;;
72584;SDS011;60618;40.084;32.908;2023-05-09T04:47:27;4.78;;;2.30;;
72584;SDS011;60618;40.084;32.908;2023-05-09T04:49:54;5.10;;;2.40;;
72584;SDS011;60618;40.084;32.908;2023-05-09T04:52:21;5.13;;;2.60;;
72584;SDS011;60618;40.084;32.908;2023-05-09T04:54:48;4.60;;;2.10;;
72584;SDS011;60618;40.084;32.908;2023-05-09T04:57:15;4.30;;;2.30;;
72584;SDS011;60618;40.084;32.908;2023-05-09T04:59:44;4.72;;;2.55;;
72584;SDS011;60618;40.084;32.908;2023-05-09T05:02:11;5.53;;;2.30;;
72584;SDS011;60618;40.084;32.908;2023-05-09T05:04:38;4.57;;;2.30;;
72584;SDS011;60618;40.084;32.908;2023-05-09T05:07:05;4.88;;;2.45;;
72584;SDS011;60618;40.084;32.908;2023-05-09T05:09:32;6.03;;;2.80;;
72584;SDS011;60618;40.084;32.908;2023-05-09T05:11:59;5.78;;;2.65;;
72584;SDS011;60618;40.084;32.908;2023-05-09T05:14:30;4.95;;;2.53;;
72584;SDS011;60618;40.084;32.908;2023-05-09T05:16:57;7.63;;;2.83;;
72584;SDS011;60618;40.084;32.908;2023-05-09T05:19:24;6.78;;;2.80;;
72584;SDS011;60618;40.084;32.908;2023-05-09T05:21:51;4.95;;;2.30;;
72584;SDS011;60618;40.084;32.908;2023-05-09T05:24:18;5.90;;;2.78;;
72584;SDS011;60618;40.084;32.908;2023-05-09T05:26:45;6.63;;;2.78;;
72584;SDS011;60618;40.084;32.908;2023-05-09T05:29:11;6.17;;;2.70;;
72584;SDS011;60618;40.084;32.908;2023-05-09T05:31:38;6.97;;;2.95;;
72584;SDS011;60618;40.084;32.908;2023-05-09T05:34:05;5.35;;;2.90;;
72584;SDS011;60618;40.084;32.908;2023-05-09T05:36:32;5.70;;;2.78;;
72584;SDS011;60618;40.084;32.908;2023-05-09T05:38:59;5.25;;;2.60;;
72584;SDS011;60618;40.084;32.908;2023-05-09T05:41:26;5.13;;;2.97;;
72584;SDS011;60618;40.084;32.908;2023-05-09T05:43:53;18.30;;;3.70;;
72584;SDS011;60618;40.084;32.908;2023-05-09T05:46:22;5.72;;;2.80;;
72584;SDS011;60618;40.084;32.908;2023-05-09T05:48:49;6.68;;;2.90;;
72584;SDS011;60618;40.084;32.908;2023-05-09T05:51:16;5.50;;;3.10;;
72584;SDS011;60618;40.084;32.908;2023-05-09T05:53:43;5.40;;;2.80;;
72584;SDS011;60618;40.084;32.908;2023-05-09T05:56:10;7.30;;;3.17;;
72584;SDS011;60618;40.084;32.908;2023-05-09T05:58:37;5.72;;;3.60;;
72584;SDS011;60618;40.084;32.908;2023-05-09T06:01:04;7.05;;;3.53;;
72584;SDS011;60618;40.084;32.908;2023-05-09T06:03:31;6.85;;;3.40;;
72584;SDS011;60618;40.084;32.908;2023-05-09T06:05:58;5.70;;;3.33;;
72584;SDS011;60618;40.084;32.908;2023-05-09T06:08:25;5.78;;;3.47;;
72584;SDS011;60618;40.084;32.908;2023-05-09T06:10:52;6.82;;;3.85;;
72584;SDS011;60618;40.084;32.908;2023-05-09T06:13:19;7.53;;;3.40;;
72584;SDS011;60618;40.084;32.908;2023-05-09T06:15:46;6.25;;;3.20;;
72584;SDS011;60618;40.084;32.908;2023-05-09T06:18:13;9.00;;;3.53;;
72584;SDS011;60618;40.084;32.908;2023-05-09T06:20:40;5.68;;;3.05;;
72584;SDS011;60618;40.084;32.908;2023-05-09T06:23:07;8.27;;;3.22;;
72584;SDS011;60618;40.084;32.908;2023-05-09T06:25:34;8.93;;;3.60;;
72584;SDS011;60618;40.084;32.908;2023-05-09T06:28:01;10.68;;;3.30;;
72584;SDS011;60618;40.084;32.908;2023-05-09T06:30:28;6.60;;;2.83;;
72584;SDS011;60618;40.084;32.908;2023-05-09T06:32:55;5.80;;;3.30;;
72584;SDS011;60618;40.084;32.908;2023-05-09T06:35:22;6.05;;;3.45;;
72584;SDS011;60618;40.084;32.908;2023-05-09T06:37:48;6.55;;;3.42;;
72584;SDS011;60618;40.084;32.908;2023-05-09T06:40:15;6.43;;;3.40;;
72584;SDS011;60618;40.084;32.908;2023-05-09T06:42:43;6.53;;;3.40;;
72584;SDS011;60618;40.084;32.908;2023-05-09T06:45:10;6.75;;;3.40;;
72584;SDS011;60618;40.084;32.908;2023-05-09T06:47:38;7.15;;;3.20;;
72584;SDS011;60618;40.084;32.908;2023-05-09T06:50:05;5.93;;;3.20;;
72584;SDS011;60618;40.084;32.908;2023-05-09T06:52:32;5.78;;;3.60;;
72584;SDS011;60618;40.084;32.908;2023-05-09T06:54:59;7.60;;;3.57;;
72584;SDS011;60618;40.084;32.908;2023-05-09T06:57:26;7.22;;;3.35;;
72584;SDS011;60618;40.084;32.908;2023-05-09T06:59:53;6.75;;;3.30;;
72584;SDS011;60618;40.084;32.908;2023-05-09T07:02:20;6.05;;;3.92;;
72584;SDS011;60618;40.084;32.908;2023-05-09T07:04:47;7.43;;;4.03;;
72584;SDS011;60618;40.084;32.908;2023-05-09T07:07:14;5.87;;;3.50;;
72584;SDS011;60618;40.084;32.908;2023-05-09T07:09:41;10.52;;;4.20;;
72584;SDS011;60618;40.084;32.908;2023-05-09T07:12:08;7.70;;;4.22;;
72584;SDS011;60618;40.084;32.908;2023-05-09T07:14:35;6.80;;;4.40;;
72584;SDS011;60618;40.084;32.908;2023-05-09T07:17:02;8.57;;;5.35;;
72584;SDS011;60618;40.084;32.908;2023-05-09T07:19:48;5.93;;;3.50;;
72584;SDS011;60618;40.084;32.908;2023-05-09T07:22:15;11.10;;;6.18;;
72584;SDS011;60618;40.084;32.908;2023-05-09T07:24:42;7.35;;;4.40;;
72584;SDS011;60618;40.084;32.908;2023-05-09T07:27:09;6.40;;;4.07;;
72584;SDS011;60618;40.084;32.908;2023-05-09T07:29:36;7.68;;;4.03;;
72584;SDS011;60618;40.084;32.908;2023-05-09T07:32:03;7.23;;;3.33;;
72584;SDS011;60618;40.084;32.908;2023-05-09T07:34:30;10.43;;;4.40;;
72584;SDS011;60618;40.084;32.908;2023-05-09T07:36:57;8.00;;;3.90;;
72584;SDS011;60618;40.084;32.908;2023-05-09T07:39:24;10.00;;;5.07;;
72584;SDS011;60618;40.084;32.908;2023-05-09T07:41:51;6.55;;;3.60;;
72584;SDS011;60618;40.084;32.908;2023-05-09T07:44:18;9.90;;;5.73;;
72584;SDS011;60618;40.084;32.908;2023-05-09T07:46:45;13.55;;;9.13;;
72584;SDS011;60618;40.084;32.908;2023-05-09T07:49:11;7.10;;;4.00;;
72584;SDS011;60618;40.084;32.908;2023-05-09T07:51:38;8.93;;;4.53;;
72584;SDS011;60618;40.084;32.908;2023-05-09T07:54:05;6.65;;;4.15;;
72584;SDS011;60618;40.084;32.908;2023-05-09T07:56:32;8.63;;;4.10;;
72584;SDS011;60618;40.084;32.908;2023-05-09T07:58:59;8.38;;;4.72;;
72584;SDS011;60618;40.084;32.908;2023-05-09T08:01:26;7.40;;;4.75;;
72584;SDS011;60618;40.084;32.908;2023-05-09T08:03:53;7.07;;;4.25;;
72584;SDS011;60618;40.084;32.908;2023-05-09T08:06:21;7.82;;;4.95;;
72584;SDS011;60618;40.084;32.908;2023-05-09T08:08:48;8.03;;;3.90;;
72584;SDS011;60618;40.084;32.908;2023-05-09T08:11:15;7.68;;;4.78;;
72584;SDS011;60618;40.084;32.908;2023-05-09T08:13:42;7.95;;;5.10;;
72584;SDS011;60618;40.084;32.908;2023-05-09T08:16:09;8.13;;;4.60;;
72584;SDS011;60618;40.084;32.908;2023-05-09T08:18:36;8.13;;;4.55;;
72584;SDS011;60618;40.084;32.908;2023-05-09T08:21:03;6.57;;;4.20;;
72584;SDS011;60618;40.084;32.908;2023-05-09T08:23:30;8.98;;;5.30;;
72584;SDS011;60618;40.084;32.908;2023-05-09T08:25:57;9.07;;;5.00;;
72584;SDS011;60618;40.084;32.908;2023-05-09T08:28:24;8.35;;;5.63;;
72584;SDS011;60618;40.084;32.908;2023-05-09T08:30:51;8.45;;;4.90;;
72584;SDS011;60618;40.084;32.908;2023-05-09T08:33:18;10.53;;;5.97;;
72584;SDS011;60618;40.084;32.908;2023-05-09T08:35:49;9.88;;;5.40;;
72584;SDS011;60618;40.084;32.908;2023-05-09T08:38:22;8.27;;;5.18;;
72584;SDS011;60618;40.084;32.908;2023-05-09T08:40:49;11.43;;;5.60;;
72584;SDS011;60618;40.084;32.908;2023-05-09T08:43:17;8.20;;;5.43;;
72584;SDS011;60618;40.084;32.908;2023-05-09T08:45:53;7.10;;;4.60;;
72584;SDS011;60618;40.084;32.908;2023-05-09T08:48:23;9.35;;;4.80;;
72584;SDS011;60618;40.084;32.908;2023-05-09T08:50:51;7.90;;;4.60;;
72584;SDS011;60618;40.084;32.908;2023-05-09T08:53:19;8.48;;;3.83;;
72584;SDS011;60618;40.084;32.908;2023-05-09T08:55:46;6.10;;;3.97;;
72584;SDS011;60618;40.084;32.908;2023-05-09T08:58:14;5.90;;;3.80;;
72584;SDS011;60618;40.084;32.908;2023-05-09T09:00:41;9.30;;;4.88;;
72584;SDS011;60618;40.084;32.908;2023-05-09T09:03:08;9.73;;;5.28;;
72584;SDS011;60618;40.084;32.908;2023-05-09T09:05:36;9.52;;;5.10;;
72584;SDS011;60618;40.084;32.908;2023-05-09T09:08:08;9.80;;;5.50;;
72584;SDS011;60618;40.084;32.908;2023-05-09T09:10:41;9.10;;;4.70;;
72584;SDS011;60618;40.084;32.908;2023-05-09T09:13:09;8.82;;;4.80;;
72584;SDS011;60618;40.084;32.908;2023-05-09T09:15:39;9.48;;;4.53;;
72584;SDS011;60618;40.084;32.908;2023-05-09T09:18:08;9.35;;;5.18;;
72584;SDS011;60618;40.084;32.908;2023-05-09T09:20:44;9.27;;;4.63;;
72584;SDS011;60618;40.084;32.908;2023-05-09T09:23:19;6.83;;;4.20;;
72584;SDS011;60618;40.084;32.908;2023-05-09T09:26:00;8.65;;;5.00;;
72584;SDS011;60618;40.084;32.908;2023-05-09T09:28:28;8.20;;;5.38;;
72584;SDS011;60618;40.084;32.908;2023-05-09T09:30:55;7.18;;;4.50;;
72584;SDS011;60618;40.084;32.908;2023-05-09T09:33:23;6.22;;;4.28;;
72584;SDS011;60618;40.084;32.908;2023-05-09T09:35:52;7.60;;;4.33;;
72584;SDS011;60618;40.084;32.908;2023-05-09T09:38:21;9.05;;;4.95;;
72584;SDS011;60618;40.084;32.908;2023-05-09T09:43:25;7.07;;;4.30;;
72584;SDS011;60618;40.084;32.908;2023-05-09T09:45:59;6.15;;;4.10;;
72584;SDS011;60618;40.084;32.908;2023-05-09T09:48:31;7.30;;;4.13;;
72584;SDS011;60618;40.084;32.908;2023-05-09T09:51:18;6.93;;;3.95;;
72584;SDS011;60618;40.084;32.908;2023-05-09T09:53:45;7.78;;;4.90;;
72584;SDS011;60618;40.084;32.908;2023-05-09T09:56:12;7.05;;;4.35;;
72584;SDS011;60618;40.084;32.908;2023-05-09T09:58:39;7.80;;;5.07;;
72584;SDS011;60618;40.084;32.908;2023-05-09T10:01:07;10.17;;;5.60;;
72584;SDS011;60618;40.084;32.908;2023-05-09T10:03:37;7.60;;;4.80;;
72584;SDS011;60618;40.084;32.908;2023-05-09T10:06:23;10.98;;;5.85;;
72584;SDS011;60618;40.084;32.908;2023-05-09T10:08:50;8.45;;;4.65;;
72584;SDS011;60618;40.084;32.908;2023-05-09T10:11:17;7.30;;;4.43;;
72584;SDS011;60618;40.084;32.908;2023-05-09T10:13:44;7.57;;;4.97;;
72584;SDS011;60618;40.084;32.908;2023-05-09T10:16:12;10.90;;;4.78;;
72584;SDS011;60618;40.084;32.908;2023-05-09T10:18:39;9.00;;;5.07;;
72584;SDS011;60618;40.084;32.908;2023-05-09T10:21:08;9.88;;;4.95;;
72584;SDS011;60618;40.084;32.908;2023-05-09T10:23:39;8.77;;;5.07;;
72584;SDS011;60618;40.084;32.908;2023-05-09T10:26:21;8.93;;;5.63;;
72584;SDS011;60618;40.084;32.908;2023-05-09T10:28:49;9.13;;;4.90;;
72584;SDS011;60618;40.084;32.908;2023-05-09T10:31:27;7.20;;;4.63;;
72584;SDS011;60618;40.084;32.908;2023-05-09T10:33:56;8.65;;;4.30;;
72584;SDS011;60618;40.084;32.908;2023-05-09T10:36:28;7.45;;;4.82;;
72584;SDS011;60618;40.084;32.908;2023-05-09T10:38:55;8.77;;;4.90;;
72584;SDS011;60618;40.084;32.908;2023-05-09T10:41:22;7.28;;;4.03;;
72584;SDS011;60618;40.084;32.908;2023-05-09T10:43:50;7.75;;;4.50;;
72584;SDS011;60618;40.084;32.908;2023-05-09T10:46:17;6.25;;;4.10;;
72584;SDS011;60618;40.084;32.908;2023-05-09T10:48:45;7.55;;;4.00;;
72584;SDS011;60618;40.084;32.908;2023-05-09T10:51:14;7.40;;;4.00;;
72584;SDS011;60618;40.084;32.908;2023-05-09T10:53:46;7.55;;;3.90;;
72584;SDS011;60618;40.084;32.908;2023-05-09T11:02:01;8.75;;;4.10;;
72584;SDS011;60618;40.084;32.908;2023-05-09T11:04:29;6.90;;;3.80;;
72584;SDS011;60618;40.084;32.908;2023-05-09T11:06:58;5.85;;;3.50;;
72584;SDS011;60618;40.084;32.908;2023-05-09T11:09:30;6.70;;;3.67;;
72584;SDS011;60618;40.084;32.908;2023-05-09T11:14:47;7.85;;;3.90;;
72584;SDS011;60618;40.084;32.908;2023-05-09T11:22:18;12.88;;;3.60;;
72584;SDS011;60618;40.084;32.908;2023-05-09T11:24:47;6.75;;;3.35;;
72584;SDS011;60618;40.084;32.908;2023-05-09T11:27:20;5.18;;;2.97;;
72584;SDS011;60618;40.084;32.908;2023-05-09T11:29:54;14.93;;;3.93;;
72584;SDS011;60618;40.084;32.908;2023-05-09T11:32:26;5.38;;;2.83;;
72584;SDS011;60618;40.084;32.908;2023-05-09T11:35:29;5.75;;;3.50;;
72584;SDS011;60618;40.084;32.908;2023-05-09T11:38:03;5.32;;;3.30;;
72584;SDS011;60618;40.084;32.908;2023-05-09T11:40:32;5.18;;;2.90;;
72584;SDS011;60618;40.084;32.908;2023-05-09T11:43:00;5.50;;;2.60;;
72584;SDS011;60618;40.084;32.908;2023-05-09T11:45:28;6.15;;;2.60;;
72584;SDS011;60618;40.084;32.908;2023-05-09T11:47:57;5.68;;;2.35;;
72584;SDS011;60618;40.084;32.908;2023-05-09T11:50:25;4.93;;;2.10;;
72584;SDS011;60618;40.084;32.908;2023-05-09T11:52:52;4.47;;;2.20;;
72584;SDS011;60618;40.084;32.908;2023-05-09T11:55:20;6.33;;;2.40;;
72584;SDS011;60618;40.084;32.908;2023-05-09T11:57:49;5.32;;;2.83;;
72584;SDS011;60618;40.084;32.908;2023-05-09T12:00:18;6.20;;;2.90;;
72584;SDS011;60618;40.084;32.908;2023-05-09T12:02:47;6.32;;;3.17;;
72584;SDS011;60618;40.084;32.908;2023-05-09T12:05:15;5.25;;;3.30;;
72584;SDS011;60618;40.084;32.908;2023-05-09T12:07:44;5.77;;;3.23;;
72584;SDS011;60618;40.084;32.908;2023-05-09T12:10:17;4.78;;;3.08;;
72584;SDS011;60618;40.084;32.908;2023-05-09T12:12:49;5.80;;;3.30;;
72584;SDS011;60618;40.084;32.908;2023-05-09T12:15:18;6.38;;;3.28;;
72584;SDS011;60618;40.084;32.908;2023-05-09T12:17:46;5.50;;;3.20;;
72584;SDS011;60618;40.084;32.908;2023-05-09T12:20:17;5.03;;;2.77;;
72584;SDS011;60618;40.084;32.908;2023-05-09T12:22:44;4.65;;;2.50;;
72584;SDS011;60618;40.084;32.908;2023-05-09T12:25:18;5.40;;;2.95;;
72584;SDS011;60618;40.084;32.908;2023-05-09T12:27:45;4.85;;;2.72;;
72584;SDS011;60618;40.084;32.908;2023-05-09T12:30:12;7.60;;;3.20;;
72584;SDS011;60618;40.084;32.908;2023-05-09T12:32:40;4.87;;;2.80;;
72584;SDS011;60618;40.084;32.908;2023-05-09T12:35:08;4.70;;;2.60;;
72584;SDS011;60618;40.084;32.908;2023-05-09T12:37:36;5.70;;;2.90;;
72584;SDS011;60618;40.084;32.908;2023-05-09T12:40:10;7.03;;;2.95;;
72584;SDS011;60618;40.084;32.908;2023-05-09T12:42:38;8.75;;;3.00;;
72584;SDS011;60618;40.084;32.908;2023-05-09T12:45:10;7.10;;;3.10;;
72584;SDS011;60618;40.084;32.908;2023-05-09T12:47:38;5.50;;;3.20;;
72584;SDS011;60618;40.084;32.908;2023-05-09T12:50:05;4.47;;;3.13;;
72584;SDS011;60618;40.084;32.908;2023-05-09T12:52:36;6.13;;;3.30;;
72584;SDS011;60618;40.084;32.908;2023-05-09T12:55:27;7.57;;;3.70;;
72584;SDS011;60618;40.084;32.908;2023-05-09T12:57:58;7.87;;;4.00;;
72584;SDS011;60618;40.084;32.908;2023-05-09T13:00:26;9.07;;;4.00;;
72584;SDS011;60618;40.084;32.908;2023-05-09T13:02:53;6.45;;;4.28;;
72584;SDS011;60618;40.084;32.908;2023-05-09T13:05:21;6.35;;;4.00;;
72584;SDS011;60618;40.084;32.908;2023-05-09T13:07:49;6.95;;;4.68;;
72584;SDS011;60618;40.084;32.908;2023-05-09T13:10:22;7.43;;;3.97;;
72584;SDS011;60618;40.084;32.908;2023-05-09T13:12:51;8.00;;;4.78;;
72584;SDS011;60618;40.084;32.908;2023-05-09T13:15:18;8.45;;;4.57;;
72584;SDS011;60618;40.084;32.908;2023-05-09T13:17:47;7.30;;;4.38;;
72584;SDS011;60618;40.084;32.908;2023-05-09T13:20:15;6.82;;;4.47;;
72584;SDS011;60618;40.084;32.908;2023-05-09T13:22:43;7.93;;;4.50;;
72584;SDS011;60618;40.084;32.908;2023-05-09T13:25:10;6.82;;;3.90;;
72584;SDS011;60618;40.084;32.908;2023-05-09T13:27:38;5.57;;;4.03;;
72584;SDS011;60618;40.084;32.908;2023-05-09T13:30:05;5.45;;;2.80;;
72584;SDS011;60618;40.084;32.908;2023-05-09T13:32:33;4.30;;;2.20;;
72584;SDS011;60618;40.084;32.908;2023-05-09T13:35:01;5.83;;;2.23;;
72584;SDS011;60618;40.084;32.908;2023-05-09T13:37:28;6.38;;;2.45;;
72584;SDS011;60618;40.084;32.908;2023-05-09T13:39:55;6.45;;;2.92;;
72584;SDS011;60618;40.084;32.908;2023-05-09T13:42:22;6.82;;;2.80;;
72584;SDS011;60618;40.084;32.908;2023-05-09T13:44:49;18.60;;;2.88;;
72584;SDS011;60618;40.084;32.908;2023-05-09T13:47:16;6.07;;;2.80;;
72584;SDS011;60618;40.084;32.908;2023-05-09T13:49:43;7.93;;;2.90;;
72584;SDS011;60618;40.084;32.908;2023-05-09T13:52:10;6.32;;;2.90;;
72584;SDS011;60618;40.084;32.908;2023-05-09T13:54:37;7.25;;;3.13;;
72584;SDS011;60618;40.084;32.908;2023-05-09T13:57:04;6.40;;;3.00;;
72584;SDS011;60618;40.084;32.908;2023-05-09T13:59:31;7.97;;;3.10;;
72584;SDS011;60618;40.084;32.908;2023-05-09T14:01:58;8.57;;;3.20;;
72584;SDS011;60618;40.084;32.908;2023-05-09T14:04:27;6.55;;;2.80;;
72584;SDS011;60618;40.084;32.908;2023-05-09T14:06:54;7.60;;;3.10;;
72584;SDS011;60618;40.084;32.908;2023-05-09T14:09:21;6.28;;;3.20;;
72584;SDS011;60618;40.084;32.908;2023-05-09T14:11:52;8.53;;;3.20;;
72584;SDS011;60618;40.084;32.908;2023-05-09T14:14:21;5.72;;;3.08;;
72584;SDS011;60618;40.084;32.908;2023-05-09T14:16:49;12.63;;;3.20;;
72584;SDS011;60618;40.084;32.908;2023-05-09T14:19:17;6.45;;;2.90;;
72584;SDS011;60618;40.084;32.908;2023-05-09T14:21:44;6.82;;;3.28;;
72584;SDS011;60618;40.084;32.908;2023-05-09T14:24:14;6.40;;;2.80;;
72584;SDS011;60618;40.084;32.908;2023-05-09T14:26:41;6.60;;;3.00;;
72584;SDS011;60618;40.084;32.908;2023-05-09T14:29:09;6.95;;;2.80;;
72584;SDS011;60618;40.084;32.908;2023-05-09T14:31:36;8.88;;;2.80;;
72584;SDS011;60618;40.084;32.908;2023-05-09T14:34:04;5.70;;;2.60;;
72584;SDS011;60618;40.084;32.908;2023-05-09T14:36:31;5.60;;;2.77;;
72584;SDS011;60618;40.084;32.908;2023-05-09T14:38:58;5.15;;;2.78;;
72584;SDS011;60618;40.084;32.908;2023-05-09T14:41:28;5.93;;;2.60;;
72584;SDS011;60618;40.084;32.908;2023-05-09T14:43:55;8.90;;;3.30;;
72584;SDS011;60618;40.084;32.908;2023-05-09T14:46:22;6.65;;;2.80;;
72584;SDS011;60618;40.084;32.908;2023-05-09T14:48:49;7.83;;;3.07;;
72584;SDS011;60618;40.084;32.908;2023-05-09T14:51:16;7.32;;;2.72;;
72584;SDS011;60618;40.084;32.908;2023-05-09T14:53:44;5.20;;;2.72;;
72584;SDS011;60618;40.084;32.908;2023-05-09T14:56:11;8.27;;;3.10;;
72584;SDS011;60618;40.084;32.908;2023-05-09T14:58:38;7.38;;;2.70;;
72584;SDS011;60618;40.084;32.908;2023-05-09T15:01:08;6.60;;;2.70;;
72584;SDS011;60618;40.084;32.908;2023-05-09T15:03:35;4.60;;;2.60;;
72584;SDS011;60618;40.084;32.908;2023-05-09T15:06:05;5.25;;;3.03;;
72584;SDS011;60618;40.084;32.908;2023-05-09T15:08:32;5.75;;;2.90;;